createdAt,value
2022-09-28T00:03:36.089Z,0.85
2022-09-28T00:06:08.670Z,3.83
2022-09-28T00:08:36.256Z,1.15
2022-09-28T00:11:04.738Z,0.95
2022-09-28T00:13:33.105Z,1.85
2022-09-28T00:16:09.151Z,0.90
2022-09-28T00:18:36.313Z,1.27
2022-09-28T00:21:09.311Z,1.23
2022-09-28T00:24:00.060Z,0.75
2022-09-28T00:26:28.927Z,1.88
2022-09-28T00:29:01.181Z,3.00
2022-09-28T00:31:32.636Z,1.73
2022-09-28T00:34:01.136Z,1.15
2022-09-28T00:36:29.721Z,0.93
2022-09-28T00:38:58.169Z,2.55
2022-09-28T00:41:27.222Z,2.58
2022-09-28T00:44:15.148Z,1.95
2022-09-28T00:46:42.216Z,1.58
2022-09-28T00:49:15.861Z,3.00
2022-09-28T00:51:45.230Z,1.20
2022-09-28T00:54:13.711Z,1.08
2022-09-28T00:56:43.774Z,1.13
2022-09-28T00:59:11.040Z,1.23
2022-09-28T01:01:38.088Z,3.38
2022-09-28T01:04:06.036Z,2.63
2022-09-28T01:06:36.988Z,1.40
2022-09-28T01:09:07.479Z,2.65
2022-09-28T01:11:37.803Z,1.75
2022-09-28T01:14:56.587Z,1.60
2022-09-28T01:17:44.892Z,2.25
2022-09-28T01:20:32.483Z,1.33
2022-09-28T01:23:24.246Z,1.77
2022-09-28T01:26:04.795Z,2.17
2022-09-28T01:28:32.407Z,1.13
2022-09-28T01:31:10.601Z,0.95
2022-09-28T01:33:46.503Z,1.38
2022-09-28T01:36:49.954Z,0.63
2022-09-28T01:39:21.666Z,0.60
2022-09-28T01:41:52.504Z,4.43
2022-09-28T01:44:21.857Z,3.65
2022-09-28T01:46:50.650Z,1.10
2022-09-28T01:49:20.377Z,1.70
2022-09-28T01:52:19.969Z,4.55
2022-09-28T01:55:14.847Z,1.20
2022-09-28T01:57:50.019Z,2.88
2022-09-28T02:00:19.499Z,1.25
2022-09-28T02:03:09.056Z,4.22
2022-09-28T02:05:47.627Z,0.90
2022-09-28T02:08:21.986Z,2.10
2022-09-28T02:11:14.601Z,2.85
2022-09-28T02:14:08.042Z,0.90
2022-09-28T02:16:58.321Z,2.58
2022-09-28T02:19:30.303Z,2.60
2022-09-28T02:22:23.945Z,2.95
2022-09-28T02:25:10.607Z,4.45
2022-09-28T02:27:51.117Z,5.28
2022-09-28T02:30:18.561Z,1.10
2022-09-28T02:32:49.016Z,3.92
2022-09-28T02:35:18.529Z,2.97
2022-09-28T02:37:46.549Z,1.95
2022-09-28T02:40:18.166Z,1.98
2022-09-28T02:43:36.045Z,3.85
2022-09-28T02:46:17.869Z,2.10
2022-09-28T02:49:04.966Z,1.13
2022-09-28T02:52:20.378Z,1.42
2022-09-28T02:55:11.989Z,0.80
2022-09-28T02:58:10.261Z,2.88
2022-09-28T03:01:02.758Z,2.08
2022-09-28T03:03:55.603Z,1.95
2022-09-28T03:06:42.247Z,2.03
2022-09-28T03:09:34.039Z,1.20
2022-09-28T03:12:07.680Z,2.78
2022-09-28T03:14:34.751Z,2.78
2022-09-28T03:17:01.838Z,2.33
2022-09-28T03:19:33.377Z,2.67
2022-09-28T03:22:00.941Z,2.58
2022-09-28T03:24:27.969Z,2.47
2022-09-28T03:26:55.223Z,1.52
2022-09-28T03:29:23.178Z,3.97
2022-09-28T03:31:57.212Z,3.42
2022-09-28T03:34:24.194Z,3.40
2022-09-28T03:36:51.720Z,1.38
2022-09-28T03:39:18.799Z,3.65
2022-09-28T03:41:45.739Z,3.67
2022-09-28T03:44:12.925Z,3.22
2022-09-28T03:46:39.944Z,4.72
2022-09-28T03:49:09.967Z,6.32
2022-09-28T03:51:36.938Z,2.33
2022-09-28T03:54:04.253Z,4.05
2022-09-28T03:56:32.113Z,4.43
2022-09-28T03:58:59.006Z,3.42
2022-09-28T04:01:26.755Z,3.08
2022-09-28T04:03:57.244Z,5.38
2022-09-28T04:06:25.994Z,5.20
2022-09-28T04:08:53.117Z,5.63
2022-09-28T04:11:20.119Z,4.53
2022-09-28T04:13:50.486Z,4.13
2022-09-28T04:16:18.625Z,3.10
2022-09-28T04:18:55.247Z,4.10
2022-09-28T04:25:52.255Z,5.75
2022-09-28T04:28:38.069Z,1.88
2022-09-28T04:31:10.229Z,1.55
2022-09-28T04:33:37.578Z,6.35
2022-09-28T04:36:05.085Z,2.10
2022-09-28T04:38:51.866Z,4.20
2022-09-28T04:41:22.509Z,2.65
2022-09-28T04:43:50.635Z,4.15
2022-09-28T04:46:17.758Z,5.95
2022-09-28T04:48:56.801Z,2.67
2022-09-28T04:51:44.449Z,3.63
2022-09-28T04:54:11.893Z,1.17
2022-09-28T04:56:39.032Z,4.28
2022-09-28T04:59:06.290Z,3.55
2022-09-28T05:01:33.715Z,2.70
2022-09-28T05:04:00.893Z,2.03
2022-09-28T05:06:46.476Z,2.08
2022-09-28T05:09:13.624Z,4.45
2022-09-28T05:11:40.811Z,3.22
2022-09-28T05:14:12.919Z,5.30
2022-09-28T05:16:40.631Z,4.30
2022-09-28T05:19:36.837Z,2.33
2022-09-28T05:22:04.879Z,3.40
2022-09-28T05:24:39.498Z,1.63
2022-09-28T05:27:06.566Z,2.30
2022-09-28T05:29:34.176Z,3.85
2022-09-28T05:32:19.509Z,2.25
2022-09-28T05:35:06.574Z,3.22
2022-09-28T05:37:42.573Z,3.38
2022-09-28T05:40:10.181Z,5.85
2022-09-28T05:42:38.477Z,2.97
2022-09-28T05:45:06.465Z,1.65
2022-09-28T05:47:41.557Z,2.22
2022-09-28T05:50:11.895Z,5.22
2022-09-28T05:52:39.465Z,1.77
2022-09-28T05:55:07.863Z,2.25
2022-09-28T05:57:35.194Z,2.22
2022-09-28T06:00:06.043Z,2.03
2022-09-28T06:02:39.593Z,1.50
2022-09-28T06:05:08.994Z,2.28
2022-09-28T06:07:36.310Z,3.17
2022-09-28T06:10:03.732Z,2.78
2022-09-28T06:12:41.452Z,2.75
2022-09-28T06:15:15.418Z,2.80
2022-09-28T06:17:44.002Z,1.23
2022-09-28T06:20:43.374Z,3.22
2022-09-28T06:23:14.873Z,3.72
2022-09-28T06:25:42.169Z,3.35
2022-09-28T06:28:14.377Z,2.05
2022-09-28T06:30:42.640Z,2.30
2022-09-28T06:33:14.165Z,2.08
2022-09-28T06:35:42.110Z,2.97
2022-09-28T06:38:09.514Z,2.42
2022-09-28T06:40:37.842Z,3.95
2022-09-28T06:43:10.330Z,2.35
2022-09-28T06:45:55.938Z,3.28
2022-09-28T06:48:44.399Z,1.60
2022-09-28T06:51:18.976Z,2.08
2022-09-28T06:53:54.159Z,2.97
2022-09-28T06:56:41.038Z,2.17
2022-09-28T06:59:08.018Z,4.32
2022-09-28T07:01:36.764Z,3.28
2022-09-28T07:04:08.525Z,2.67
2022-09-28T07:06:54.344Z,2.70
2022-09-28T07:09:43.832Z,3.88
2022-09-28T07:12:41.233Z,4.90
2022-09-28T07:15:32.311Z,4.43
2022-09-28T07:18:03.561Z,5.50
2022-09-28T07:20:42.151Z,2.47
2022-09-28T07:23:18.818Z,4.20
2022-09-28T07:26:08.695Z,2.63
2022-09-28T07:29:05.745Z,4.25
2022-09-28T07:31:55.596Z,9.32
2022-09-28T07:34:43.729Z,3.95
2022-09-28T07:37:15.837Z,4.72
2022-09-28T07:40:01.290Z,7.35
2022-09-28T07:42:31.167Z,3.30
2022-09-28T07:44:59.173Z,3.38
2022-09-28T07:47:32.270Z,3.35
2022-09-28T07:50:36.863Z,9.00
2022-09-28T07:53:14.082Z,3.53
2022-09-28T07:56:05.003Z,5.30
2022-09-28T07:59:01.229Z,5.70
2022-09-28T08:01:40.160Z,4.90
2022-09-28T08:04:09.645Z,4.28
2022-09-28T08:06:37.371Z,5.90
2022-09-28T08:09:06.038Z,5.15
2022-09-28T08:11:51.422Z,6.00
2022-09-28T08:14:34.514Z,6.72
2022-09-28T08:17:37.194Z,4.90
2022-09-28T08:20:26.366Z,6.32
2022-09-28T08:22:53.548Z,5.57
2022-09-28T08:25:21.164Z,3.75
2022-09-28T08:27:49.658Z,6.10
2022-09-28T08:30:16.934Z,6.60
2022-09-28T08:33:05.413Z,6.18
2022-09-28T08:35:35.164Z,4.28
2022-09-28T08:38:14.037Z,6.03
2022-09-28T08:41:27.294Z,4.60
2022-09-28T08:44:24.202Z,9.98
2022-09-28T08:47:55.077Z,5.20
2022-09-28T08:50:33.916Z,3.83
2022-09-28T08:53:40.122Z,4.57
2022-09-28T08:56:44.747Z,3.63
2022-09-28T08:59:23.985Z,5.07
2022-09-28T09:02:03.720Z,4.72
2022-09-28T09:04:33.965Z,4.30
2022-09-28T09:08:04.594Z,5.22
2022-09-28T09:10:35.360Z,4.93
2022-09-28T09:13:31.445Z,4.30
2022-09-28T09:16:37.397Z,6.00
2022-09-28T09:19:47.616Z,6.60
2022-09-28T09:22:38.314Z,5.03
2022-09-28T09:25:05.662Z,3.20
2022-09-28T09:27:44.938Z,5.00
2022-09-28T09:30:18.968Z,4.53
2022-09-28T09:32:56.022Z,4.15
2022-09-28T09:35:37.592Z,6.80
2022-09-28T09:38:41.461Z,7.43
2022-09-28T09:41:47.695Z,3.50
2022-09-28T09:44:59.108Z,3.90
2022-09-28T09:47:49.666Z,6.95
2022-09-28T09:50:33.489Z,5.40
2022-09-28T09:53:14.022Z,5.45
2022-09-28T09:55:46.088Z,4.90
2022-09-28T09:58:46.406Z,5.68
2022-09-28T10:01:40.711Z,4.07
2022-09-28T10:04:25.757Z,3.83
2022-09-28T10:07:07.113Z,3.15
2022-09-28T10:09:48.129Z,3.38
2022-09-28T10:12:38.350Z,3.65
2022-09-28T10:15:07.806Z,2.55
2022-09-28T10:17:46.761Z,3.45
2022-09-28T10:20:37.141Z,5.03
2022-09-28T10:23:34.112Z,6.05
2022-09-28T10:26:06.155Z,2.75
2022-09-28T10:28:59.068Z,2.40
2022-09-28T10:31:43.259Z,3.58
2022-09-28T10:34:30.982Z,3.00
2022-09-28T10:37:09.938Z,2.92
2022-09-28T10:39:56.442Z,4.95
2022-09-28T10:42:33.947Z,3.20
2022-09-28T10:45:17.199Z,2.42
2022-09-28T10:47:45.391Z,4.13
2022-09-28T10:50:23.954Z,3.40
2022-09-28T10:53:19.533Z,6.05
2022-09-28T10:56:28.137Z,2.17
2022-09-28T10:59:28.836Z,3.87
2022-09-28T11:02:27.413Z,1.83
2022-09-28T11:05:03.014Z,4.50
2022-09-28T11:07:46.154Z,3.38
2022-09-28T11:10:34.930Z,4.88
2022-09-28T11:13:10.346Z,3.72
2022-09-28T11:15:43.576Z,5.17
2022-09-28T11:18:32.476Z,2.38
2022-09-28T11:21:13.560Z,6.43
2022-09-28T11:24:07.823Z,3.95
2022-09-28T11:26:43.719Z,9.70
2022-09-28T11:29:43.150Z,3.85
2022-09-28T11:32:44.421Z,3.13
2022-09-28T11:35:50.899Z,4.07
2022-09-28T11:38:35.406Z,2.08
2022-09-28T11:41:38.646Z,4.25
2022-09-28T11:44:21.271Z,3.33
2022-09-28T11:47:36.992Z,6.03
2022-09-28T11:50:23.693Z,2.95
2022-09-28T11:53:19.928Z,3.90
2022-09-28T11:56:17.845Z,2.83
2022-09-28T11:58:53.348Z,4.18
2022-09-28T12:01:35.552Z,4.10
2022-09-28T12:04:36.998Z,3.13
2022-09-28T12:07:22.342Z,1.65
2022-09-28T12:10:11.729Z,4.22
2022-09-28T12:12:55.637Z,2.10
2022-09-28T12:15:28.482Z,3.05
2022-09-28T12:18:03.773Z,3.00
2022-09-28T12:20:46.533Z,2.72
2022-09-28T12:23:24.353Z,6.28
2022-09-28T12:26:27.042Z,3.83
2022-09-28T12:28:59.682Z,4.65
2022-09-28T12:31:36.991Z,7.22
2022-09-28T12:34:04.162Z,3.80
2022-09-28T12:36:33.861Z,4.10
2022-09-28T12:39:19.155Z,4.13
2022-09-28T12:42:16.551Z,5.72
2022-09-28T12:45:18.910Z,6.63
2022-09-28T12:47:54.707Z,3.85
2022-09-28T12:50:44.760Z,3.42
2022-09-28T12:53:29.672Z,7.10
2022-09-28T12:56:09.253Z,5.82
2022-09-28T12:59:01.503Z,7.35
2022-09-28T13:01:37.564Z,4.40
2022-09-28T13:04:33.694Z,3.75
2022-09-28T13:07:19.181Z,5.93
2022-09-28T13:10:01.366Z,4.13
2022-09-28T13:13:14.296Z,8.55
2022-09-28T13:15:51.705Z,2.45
2022-09-28T13:18:38.403Z,4.35
2022-09-28T13:21:22.911Z,7.80
2022-09-28T13:24:00.846Z,3.40
2022-09-28T13:26:44.017Z,5.18
2022-09-28T13:29:16.937Z,5.13
2022-09-28T13:31:53.641Z,3.15
2022-09-28T13:34:25.250Z,2.25
2022-09-28T13:37:14.604Z,5.57
2022-09-28T13:39:44.650Z,6.05
2022-09-28T13:42:32.829Z,4.72
2022-09-28T13:50:03.488Z,6.22
2022-09-28T13:56:39.848Z,3.58
2022-09-28T13:59:15.987Z,6.65
2022-09-28T14:01:51.881Z,3.67
2022-09-28T14:04:22.062Z,3.38
2022-09-28T14:07:10.630Z,4.28
2022-09-28T14:09:44.661Z,4.20
2022-09-28T14:13:15.518Z,4.90
2022-09-28T14:15:45.141Z,4.03
2022-09-28T14:18:32.006Z,4.32
2022-09-28T14:21:12.949Z,4.15
2022-09-28T14:24:10.967Z,2.58
2022-09-28T14:27:18.761Z,2.38
2022-09-28T14:29:47.443Z,5.55
2022-09-28T14:32:20.367Z,4.50
2022-09-28T14:34:55.558Z,4.28
2022-09-28T14:37:53.106Z,6.95
2022-09-28T14:40:49.761Z,3.65
2022-09-28T14:43:45.050Z,4.13
2022-09-28T14:46:12.403Z,4.13
2022-09-28T14:49:17.939Z,5.13
2022-09-28T14:51:47.774Z,3.97
2022-09-28T14:57:16.152Z,3.97
2022-09-28T14:59:46.453Z,3.78
2022-09-28T15:02:24.906Z,4.28
2022-09-28T15:05:27.441Z,5.15
2022-09-28T15:07:55.233Z,2.47
2022-09-28T15:10:27.676Z,4.65
2022-09-28T15:12:56.156Z,2.13
2022-09-28T15:15:36.656Z,3.00
2022-09-28T15:18:08.954Z,2.28
2022-09-28T15:20:39.832Z,1.90
2022-09-28T15:23:33.087Z,3.75
2022-09-28T15:26:00.092Z,3.05
2022-09-28T15:28:27.048Z,2.83
2022-09-28T15:31:02.067Z,1.88
2022-09-28T15:33:53.216Z,4.78
2022-09-28T15:36:41.892Z,3.42
2022-09-28T15:39:25.580Z,3.83
2022-09-28T15:41:53.047Z,4.50
2022-09-28T15:44:32.359Z,2.60
2022-09-28T15:47:27.204Z,2.13
2022-09-28T15:50:05.914Z,3.50
2022-09-28T15:52:52.853Z,5.57
2022-09-28T15:55:30.564Z,5.40
2022-09-28T15:58:17.190Z,5.78
2022-09-28T16:00:49.548Z,4.68
2022-09-28T16:03:24.330Z,6.20
2022-09-28T16:05:57.294Z,5.03
2022-09-28T16:08:44.868Z,4.95
2022-09-28T16:11:29.126Z,5.90
2022-09-28T16:14:26.167Z,3.88
2022-09-28T16:16:54.647Z,4.50
2022-09-28T16:19:29.099Z,5.63
2022-09-28T16:21:58.510Z,1.90
2022-09-28T16:24:32.418Z,2.33
2022-09-28T16:27:08.527Z,3.55
2022-09-28T16:29:45.108Z,5.38
2022-09-28T16:32:38.428Z,9.77
2022-09-28T16:35:11.477Z,2.67
2022-09-28T16:38:43.380Z,3.13
2022-09-28T16:41:10.982Z,2.60
2022-09-28T16:43:38.186Z,4.63
2022-09-28T16:46:06.149Z,4.45
2022-09-28T16:48:37.089Z,5.47
2022-09-28T16:51:04.099Z,3.97
2022-09-28T16:53:49.578Z,7.13
2022-09-28T16:56:16.743Z,5.53
2022-09-28T16:58:44.289Z,7.95
2022-09-28T17:01:13.004Z,5.28
2022-09-28T17:03:44.321Z,7.78
2022-09-28T17:06:12.846Z,5.47
2022-09-28T17:08:39.912Z,4.30
2022-09-28T17:11:16.860Z,4.70
2022-09-28T17:13:46.670Z,8.88
2022-09-28T17:16:17.829Z,4.50
2022-09-28T17:18:46.080Z,4.10
2022-09-28T17:21:16.026Z,3.25
2022-09-28T17:23:44.262Z,4.55
2022-09-28T17:26:30.827Z,7.78
2022-09-28T17:28:59.511Z,6.00
2022-09-28T17:31:30.971Z,6.75
2022-09-28T17:33:58.428Z,5.95
2022-09-28T17:36:26.741Z,7.55
2022-09-28T17:38:54.901Z,4.20
2022-09-28T17:41:21.825Z,4.43
2022-09-28T17:43:49.199Z,5.15
2022-09-28T17:46:33.709Z,4.30
2022-09-28T17:49:05.477Z,8.27
2022-09-28T17:51:35.019Z,3.65
2022-09-28T17:54:02.349Z,6.22
2022-09-28T17:56:32.393Z,2.53
2022-09-28T17:59:53.360Z,3.90
2022-09-28T18:02:20.302Z,2.45
2022-09-28T18:04:52.297Z,5.47
2022-09-28T18:07:19.922Z,4.80
2022-09-28T18:09:46.872Z,3.35
2022-09-28T18:12:14.056Z,5.10
2022-09-28T18:14:41.130Z,4.22
2022-09-28T18:17:08.119Z,2.45
2022-09-28T18:19:35.110Z,2.55
2022-09-28T18:22:02.054Z,3.42
2022-09-28T18:24:29.320Z,5.82
2022-09-28T18:26:57.318Z,4.93
2022-09-28T18:29:24.537Z,3.25
2022-09-28T18:31:51.513Z,2.60
2022-09-28T18:34:18.707Z,4.25
2022-09-28T18:36:45.617Z,2.55
2022-09-28T18:39:12.747Z,4.35
2022-09-28T18:41:39.807Z,4.95
2022-09-28T18:44:06.775Z,3.65
2022-09-28T18:47:04.648Z,4.05
2022-09-28T18:49:37.904Z,4.13
2022-09-28T18:52:05.165Z,4.93
2022-09-28T18:54:33.285Z,5.32
2022-09-28T18:57:03.007Z,5.32
2022-09-28T19:02:11.850Z,5.03
2022-09-28T19:04:39.869Z,4.57
2022-09-28T19:07:08.278Z,8.60
2022-09-28T19:09:35.659Z,8.20
2022-09-28T19:12:02.710Z,7.50
2022-09-28T19:14:29.735Z,4.65
2022-09-28T19:16:56.719Z,4.10
2022-09-28T19:19:23.711Z,7.35
2022-09-28T19:21:50.822Z,5.07
2022-09-28T19:24:19.019Z,5.90
2022-09-28T19:26:46.680Z,5.95
2022-09-28T19:29:14.848Z,5.75
2022-09-28T19:32:45.881Z,5.47
2022-09-28T19:35:13.271Z,5.97
2022-09-28T19:37:56.551Z,3.97
2022-09-28T19:40:23.574Z,5.20
2022-09-28T19:42:52.561Z,8.95
2022-09-28T19:45:19.903Z,7.03
2022-09-28T19:47:49.177Z,7.43
2022-09-28T19:50:16.250Z,9.10
2022-09-28T19:52:43.202Z,13.18
2022-09-28T19:55:10.272Z,6.60
2022-09-28T19:57:37.205Z,7.60
2022-09-28T20:00:30.101Z,5.45
2022-09-28T20:03:27.146Z,6.13
2022-09-28T20:06:02.093Z,10.05
2022-09-28T20:08:32.539Z,8.60
2022-09-28T20:11:00.495Z,7.32
2022-09-28T20:13:37.281Z,12.13
2022-09-28T20:16:09.395Z,11.90
2022-09-28T20:18:38.396Z,7.07
2022-09-28T20:21:07.319Z,8.60
2022-09-28T20:23:37.463Z,8.20
2022-09-28T20:26:05.256Z,6.90
2022-09-28T20:28:33.132Z,7.93
2022-09-28T20:31:14.390Z,11.75
2022-09-28T20:33:44.446Z,7.65
2022-09-28T20:36:16.966Z,17.35
2022-09-28T20:38:44.298Z,9.82
2022-09-28T20:41:13.162Z,6.90
2022-09-28T20:43:41.093Z,10.13
2022-09-28T20:46:10.481Z,9.20
2022-09-28T20:48:37.598Z,11.15
2022-09-28T20:51:08.935Z,8.15
2022-09-28T20:53:37.707Z,7.22
2022-09-28T20:56:08.041Z,6.93
2022-09-28T20:58:35.171Z,8.43
2022-09-28T21:01:10.835Z,7.80
2022-09-28T21:03:38.749Z,10.40
2022-09-28T21:06:12.031Z,7.13
2022-09-28T21:08:39.323Z,10.07
2022-09-28T21:11:07.388Z,8.60
2022-09-28T21:13:34.405Z,9.77
2022-09-28T21:16:02.968Z,7.00
2022-09-28T21:18:30.759Z,8.65
2022-09-28T21:20:57.742Z,7.75
2022-09-28T21:23:25.155Z,7.57
2022-09-28T21:26:03.721Z,6.10
2022-09-28T21:28:31.064Z,5.55
2022-09-28T21:30:58.442Z,9.32
2022-09-28T21:33:25.627Z,7.32
2022-09-28T21:35:52.588Z,6.22
2022-09-28T21:38:19.608Z,6.18
2022-09-28T21:40:46.777Z,8.35
2022-09-28T21:43:13.880Z,7.18
2022-09-28T21:45:40.926Z,11.00
2022-09-28T21:48:08.004Z,9.07
2022-09-28T21:50:34.980Z,9.10
2022-09-28T21:53:03.280Z,8.00
2022-09-28T21:55:30.251Z,8.98
2022-09-28T21:57:57.245Z,8.50
2022-09-28T22:00:24.507Z,7.38
2022-09-28T22:02:51.637Z,7.20
2022-09-28T22:05:19.343Z,8.85
2022-09-28T22:07:46.393Z,12.13
2022-09-28T22:10:14.822Z,8.10
2022-09-28T22:12:42.057Z,8.90
2022-09-28T22:15:10.009Z,9.88
2022-09-28T22:17:37.089Z,8.30
2022-09-28T22:20:05.034Z,11.52
2022-09-28T22:22:31.998Z,9.25
2022-09-28T22:24:59.152Z,7.75
2022-09-28T22:27:26.406Z,6.93
2022-09-28T22:29:53.349Z,7.70
2022-09-28T22:32:20.287Z,9.98
2022-09-28T22:34:47.252Z,9.48
2022-09-28T22:37:14.205Z,8.18
2022-09-28T22:39:41.310Z,8.00
2022-09-28T22:42:08.415Z,10.93
2022-09-28T22:44:35.956Z,11.07
2022-09-28T22:47:03.594Z,6.88
2022-09-28T22:49:31.649Z,10.93
2022-09-28T22:51:58.622Z,11.45
2022-09-28T22:54:25.664Z,9.57
2022-09-28T22:56:52.633Z,8.60
2022-09-28T22:59:19.733Z,10.88
2022-09-28T23:01:46.884Z,12.00
2022-09-28T23:04:13.943Z,13.93
2022-09-28T23:13:28.855Z,6.97
2022-09-28T23:16:01.309Z,8.13
2022-09-28T23:18:30.807Z,8.27
2022-09-28T23:21:00.670Z,8.57
2022-09-28T23:23:28.426Z,11.18
2022-09-28T23:25:55.769Z,9.48
2022-09-28T23:28:24.885Z,9.38
2022-09-28T23:30:52.465Z,8.02
2022-09-28T23:33:20.774Z,9.38
2022-09-28T23:35:47.859Z,10.25
2022-09-28T23:38:18.243Z,12.18
2022-09-28T23:40:46.646Z,10.10
2022-09-28T23:43:14.494Z,9.95
2022-09-28T23:45:43.975Z,10.70
2022-09-28T23:48:11.175Z,8.80
2022-09-28T23:50:38.350Z,9.60
2022-09-28T23:53:05.710Z,6.35
2022-09-28T23:55:32.971Z,12.25
2022-09-28T23:57:59.996Z,5.70
